Time;durP1;ratioP1;P1;durP2;ratioP2;P2;SDS_P1;SDS_P2;PMS_P1;PMS_P2;Temp;Humidity;BMP_temperature;BMP_pressure;BME280_temperature;BME280_humidity;BME280_pressure;Samples;Min_cycle;Max_cycle;Signal;HPM_P1;HPM_P2
2023/09/07 00:00:28;;;;;;;7.78;3.42;;;19.80;99.90;;;;;;5056304;28;20048;-74
2023/09/07 00:02:54;;;;;;;5.15;3.17;;;19.80;99.90;;;;;;5051077;28;20048;-76
2023/09/07 00:05:20;;;;;;;4.80;3.72;;;19.70;99.90;;;;;;5041440;28;20128;-76
2023/09/07 00:07:45;;;;;;;9.65;3.42;;;19.60;99.90;;;;;;5045647;28;20072;-76
2023/09/07 00:10:11;;;;;;;6.95;3.33;;;19.60;99.90;;;;;;5043168;28;20047;-76
2023/09/07 00:12:39;;;;;;;3.85;2.95;;;19.60;99.90;;;;;;5043560;28;20033;-76
2023/09/07 00:15:08;;;;;;;8.77;3.38;;;19.60;99.90;;;;;;5064625;28;20055;-76
2023/09/07 00:17:34;;;;;;;5.10;3.20;;;19.60;99.90;;;;;;5055292;28;20507;-76
2023/09/07 00:20:00;;;;;;;5.35;3.85;;;19.60;99.90;;;;;;5061348;28;20048;-76
2023/09/07 00:22:25;;;;;;;10.07;3.67;;;19.60;99.90;;;;;;5046692;28;20041;-76
2023/09/07 00:24:51;;;;;;;6.97;3.65;;;19.60;99.90;;;;;;5058992;28;20133;-73
2023/09/07 00:27:17;;;;;;;8.38;3.30;;;19.60;99.90;;;;;;5047527;28;20041;-76
2023/09/07 00:29:43;;;;;;;7.53;3.30;;;19.60;99.90;;;;;;5045924;28;20519;-73
2023/09/07 00:32:09;;;;;;;6.78;3.50;;;19.70;99.90;;;;;;5046865;28;20446;-73
2023/09/07 00:34:34;;;;;;;9.57;3.67;;;19.70;99.90;;;;;;5058620;28;20574;-74
2023/09/07 00:37:00;;;;;;;6.38;4.10;;;19.70;99.90;;;;;;5045120;28;20247;-74
2023/09/07 00:39:26;;;;;;;6.28;3.65;;;19.70;99.90;;;;;;5054533;28;20555;-74
2023/09/07 00:41:52;;;;;;;6.18;3.47;;;19.70;99.90;;;;;;5056403;28;20047;-74
2023/09/07 00:44:18;;;;;;;4.78;3.88;;;19.70;99.90;;;;;;5057775;28;20640;-73
2023/09/07 00:46:44;;;;;;;7.28;3.67;;;19.70;99.90;;;;;;5056689;28;20055;-74
2023/09/07 00:49:13;;;;;;;6.97;3.80;;;19.70;99.90;;;;;;5062022;28;20044;-74
2023/09/07 00:51:40;;;;;;;5.97;3.38;;;19.70;99.90;;;;;;5058194;28;20035;-74
2023/09/07 00:54:06;;;;;;;5.18;3.63;;;19.70;99.90;;;;;;5052479;28;20126;-73
2023/09/07 00:56:32;;;;;;;5.20;3.92;;;19.70;99.90;;;;;;5038736;28;20720;-74
2023/09/07 00:58:59;;;;;;;6.13;3.65;;;19.70;99.90;;;;;;5096584;28;20045;-74
2023/09/07 01:01:26;;;;;;;5.65;3.42;;;19.70;99.90;;;;;;5053530;28;20041;-74
2023/09/07 01:03:52;;;;;;;3.97;3.20;;;19.70;99.90;;;;;;5058289;28;20555;-74
2023/09/07 01:06:20;;;;;;;6.28;3.97;;;19.70;99.90;;;;;;5064628;28;20040;-74
2023/09/07 01:08:49;;;;;;;6.88;3.80;;;19.60;99.90;;;;;;5062970;28;20048;-74
2023/09/07 01:11:16;;;;;;;6.22;3.75;;;19.70;99.90;;;;;;5079003;28;20070;-74
2023/09/07 01:13:42;;;;;;;6.50;3.90;;;19.60;99.90;;;;;;5056725;28;20432;-74
2023/09/07 01:16:11;;;;;;;5.50;3.75;;;19.60;99.90;;;;;;5062667;28;20313;-74
2023/09/07 01:18:38;;;;;;;5.68;3.60;;;19.60;99.90;;;;;;5052021;28;20216;-74
2023/09/07 01:21:09;;;;;;;5.40;3.92;;;19.60;99.90;;;;;;5065112;28;20037;-74
2023/09/07 01:23:41;;;;;;;5.97;3.83;;;19.60;99.90;;;;;;5050868;28;20114;-74
2023/09/07 01:26:08;;;;;;;4.97;3.30;;;19.60;99.90;;;;;;5063812;28;20053;-74
2023/09/07 01:28:37;;;;;;;7.55;3.53;;;19.50;99.90;;;;;;5059378;28;20067;-74
2023/09/07 01:31:04;;;;;;;7.68;3.90;;;19.50;99.90;;;;;;5066519;28;20040;-75
2023/09/07 01:33:33;;;;;;;8.60;3.85;;;19.50;99.90;;;;;;5071537;28;20097;-75
2023/09/07 01:35:59;;;;;;;7.53;3.80;;;19.50;99.90;;;;;;5059842;28;20550;-75
2023/09/07 01:38:28;;;;;;;4.95;3.80;;;19.50;99.90;;;;;;5062008;28;20098;-75
2023/09/07 01:40:53;;;;;;;6.68;4.07;;;19.50;99.90;;;;;;5058832;28;20045;-74
2023/09/07 01:43:20;;;;;;;6.47;3.97;;;19.50;99.90;;;;;;5039626;28;21589;-74
2023/09/07 01:45:49;;;;;;;7.07;3.90;;;19.40;99.90;;;;;;5055935;28;20052;-74
2023/09/07 01:48:15;;;;;;;5.18;3.78;;;19.40;99.90;;;;;;5066927;28;20045;-74
2023/09/07 01:50:46;;;;;;;10.23;4.30;;;19.40;99.90;;;;;;5049874;28;20511;-74
2023/09/07 01:53:12;;;;;;;5.97;3.85;;;19.40;99.90;;;;;;5097806;27;20067;-74
2023/09/07 01:55:38;;;;;;;6.03;3.95;;;19.30;99.90;;;;;;5066941;28;20076;-74
2023/09/07 01:58:03;;;;;;;8.02;4.40;;;19.30;99.90;;;;;;5052429;28;20750;-75
2023/09/07 02:00:29;;;;;;;5.95;4.00;;;19.30;99.90;;;;;;5041648;28;20040;-75
2023/09/07 02:02:55;;;;;;;6.60;4.25;;;19.30;99.90;;;;;;5056356;28;20048;-75
2023/09/07 02:05:21;;;;;;;5.70;3.85;;;19.30;99.90;;;;;;5063150;28;20044;-75
2023/09/07 02:07:49;;;;;;;6.13;4.07;;;19.20;99.90;;;;;;5071888;28;20052;-74
2023/09/07 02:10:15;;;;;;;6.88;5.00;;;19.20;99.90;;;;;;5046358;28;20052;-74
2023/09/07 02:12:41;;;;;;;5.03;3.60;;;19.10;99.90;;;;;;5055017;28;20418;-75
2023/09/07 02:15:07;;;;;;;5.68;3.80;;;19.10;99.90;;;;;;5056992;28;20040;-75
2023/09/07 02:17:32;;;;;;;6.70;4.03;;;19.00;99.90;;;;;;5049093;28;20457;-75
2023/09/07 02:19:58;;;;;;;6.25;4.05;;;19.00;99.90;;;;;;5051053;28;20541;-74
2023/09/07 02:22:24;;;;;;;5.90;4.05;;;18.90;99.90;;;;;;5043085;28;20060;-74
2023/09/07 02:24:50;;;;;;;6.78;4.25;;;18.90;99.90;;;;;;5045939;28;20049;-75
2023/09/07 02:27:15;;;;;;;7.38;4.13;;;18.80;99.90;;;;;;5049900;28;20072;-75
2023/09/07 02:29:41;;;;;;;6.03;4.43;;;18.80;99.90;;;;;;5048673;28;20037;-75
2023/09/07 02:32:07;;;;;;;5.38;4.13;;;18.80;99.90;;;;;;5058222;28;20306;-75
2023/09/07 02:34:36;;;;;;;7.72;4.80;;;18.70;99.90;;;;;;5054791;28;20033;-75
2023/09/07 02:37:02;;;;;;;5.13;4.32;;;18.70;99.90;;;;;;5037096;28;20509;-75
2023/09/07 02:39:28;;;;;;;6.78;4.38;;;18.70;99.90;;;;;;5048160;28;20139;-75
2023/09/07 02:41:57;;;;;;;7.38;4.57;;;18.60;99.90;;;;;;5085895;28;20050;-75
2023/09/07 02:44:23;;;;;;;6.60;4.53;;;18.60;99.90;;;;;;5059811;28;20051;-74
2023/09/07 02:46:48;;;;;;;6.35;4.20;;;18.60;99.90;;;;;;5045060;28;20044;-74
2023/09/07 02:49:14;;;;;;;7.25;4.35;;;18.50;99.90;;;;;;5055076;28;20054;-75
2023/09/07 02:51:43;;;;;;;8.23;4.70;;;18.50;99.90;;;;;;5045678;28;20040;-74
2023/09/07 02:54:09;;;;;;;7.63;4.63;;;18.50;99.90;;;;;;5054524;28;20113;-75
2023/09/07 02:56:35;;;;;;;4.97;4.00;;;18.50;99.90;;;;;;5045901;28;20676;-75
2023/09/07 02:59:01;;;;;;;6.13;4.35;;;18.40;99.90;;;;;;5044531;28;20498;-74
2023/09/07 03:01:27;;;;;;;7.22;4.97;;;18.40;99.90;;;;;;5047788;28;20502;-75
2023/09/07 03:03:52;;;;;;;7.88;5.10;;;18.30;99.90;;;;;;5057766;28;20777;-74
2023/09/07 03:06:18;;;;;;;5.38;4.35;;;18.20;99.90;;;;;;5056187;28;20033;-75
2023/09/07 03:08:44;;;;;;;5.82;5.05;;;18.10;99.90;;;;;;5067123;28;20032;-74
2023/09/07 03:11:11;;;;;;;6.63;4.65;;;18.10;99.90;;;;;;5058683;28;20052;-75
2023/09/07 03:13:37;;;;;;;5.65;5.05;;;18.00;99.90;;;;;;5059357;28;20079;-75
2023/09/07 03:16:03;;;;;;;5.70;5.10;;;17.90;99.90;;;;;;5062486;28;20540;-75
2023/09/07 03:18:30;;;;;;;7.47;5.45;;;17.90;99.90;;;;;;5047468;28;20032;-74
2023/09/07 03:21:01;;;;;;;7.13;5.65;;;17.80;99.90;;;;;;5042370;28;20052;-75
2023/09/07 03:23:28;;;;;;;6.40;4.85;;;17.80;99.90;;;;;;5044431;28;20079;-75
2023/09/07 03:25:55;;;;;;;7.70;5.38;;;17.70;99.90;;;;;;5063851;28;20055;-74
2023/09/07 03:28:21;;;;;;;6.10;4.80;;;17.70;99.90;;;;;;5046710;28;20037;-74
2023/09/07 03:30:46;;;;;;;6.50;4.78;;;17.60;99.90;;;;;;5069259;28;20055;-74
2023/09/07 03:33:12;;;;;;;6.57;4.53;;;17.60;99.90;;;;;;5063588;28;20039;-74
2023/09/07 03:35:38;;;;;;;5.50;4.85;;;17.60;99.90;;;;;;5072553;28;20032;-74
2023/09/07 03:38:04;;;;;;;7.50;5.18;;;17.70;99.90;;;;;;5042782;28;20543;-74
2023/09/07 03:40:30;;;;;;;6.65;4.53;;;17.80;99.90;;;;;;5064318;28;20048;-75
2023/09/07 03:42:55;;;;;;;7.22;5.40;;;17.80;99.90;;;;;;5057692;28;20044;-74
2023/09/07 03:45:21;;;;;;;8.45;4.88;;;17.90;99.90;;;;;;5060121;28;20045;-74
2023/09/07 03:47:47;;;;;;;6.88;4.72;;;18.00;99.90;;;;;;5054980;28;20067;-75
2023/09/07 03:50:13;;;;;;;7.65;4.95;;;18.10;99.90;;;;;;5061647;28;20157;-75
2023/09/07 03:52:39;;;;;;;7.30;4.45;;;18.10;99.90;;;;;;5065018;28;20129;-74
2023/09/07 03:55:05;;;;;;;5.72;4.63;;;18.20;99.90;;;;;;5064358;28;20692;-74
2023/09/07 03:57:31;;;;;;;6.35;5.18;;;18.20;99.90;;;;;;5060922;28;20051;-74
2023/09/07 03:59:58;;;;;;;7.07;4.80;;;18.30;99.90;;;;;;5063992;28;20040;-75
2023/09/07 04:02:24;;;;;;;5.95;5.00;;;18.30;99.90;;;;;;5046873;28;20040;-74
2023/09/07 04:04:55;;;;;;;6.05;5.10;;;18.30;99.90;;;;;;5045684;28;20064;-75
2023/09/07 04:07:21;;;;;;;7.50;4.82;;;18.30;99.90;;;;;;5058138;28;20507;-74
2023/09/07 04:09:47;;;;;;;6.85;4.75;;;18.40;99.90;;;;;;5044210;28;20089;-74
2023/09/07 04:12:13;;;;;;;7.18;4.82;;;18.40;99.90;;;;;;5051442;28;20088;-74
2023/09/07 04:14:38;;;;;;;6.50;5.35;;;18.40;99.90;;;;;;5051728;28;20079;-74
2023/09/07 04:17:05;;;;;;;6.60;5.03;;;18.30;99.90;;;;;;5056452;28;20084;-75
2023/09/07 04:19:31;;;;;;;10.43;5.72;;;18.30;99.90;;;;;;5046960;28;20454;-74
2023/09/07 04:21:58;;;;;;;6.18;5.15;;;18.30;99.90;;;;;;5057914;28;20059;-75
2023/09/07 04:24:24;;;;;;;7.05;6.10;;;18.20;99.90;;;;;;5047999;28;20048;-74
2023/09/07 04:26:52;;;;;;;8.23;5.43;;;18.20;99.90;;;;;;5056288;28;20495;-75
2023/09/07 04:29:17;;;;;;;6.13;5.00;;;18.10;99.90;;;;;;5053900;28;20048;-75
2023/09/07 04:31:43;;;;;;;9.05;5.32;;;18.10;99.90;;;;;;5039046;28;20086;-74
2023/09/07 04:34:09;;;;;;;7.10;5.55;;;18.00;99.90;;;;;;5058335;28;20049;-75
2023/09/07 04:36:34;;;;;;;8.88;5.53;;;18.00;99.90;;;;;;5054564;28;20079;-74
2023/09/07 04:39:01;;;;;;;6.45;5.32;;;17.90;99.90;;;;;;5060105;28;20301;-75
2023/09/07 04:41:27;;;;;;;6.63;5.38;;;17.90;99.90;;;;;;5051329;28;20102;-75
2023/09/07 04:43:53;;;;;;;6.82;5.85;;;17.90;99.90;;;;;;5058097;28;20052;-74
2023/09/07 04:46:21;;;;;;;7.53;5.80;;;17.90;99.90;;;;;;5048111;28;20073;-74
2023/09/07 04:48:47;;;;;;;7.85;5.95;;;17.80;99.90;;;;;;5057227;28;21025;-75
2023/09/07 04:51:13;;;;;;;7.03;5.80;;;17.80;99.90;;;;;;5048283;28;20060;-74
2023/09/07 04:53:39;;;;;;;7.68;5.50;;;17.70;99.90;;;;;;5050026;28;20068;-75
2023/09/07 04:56:06;;;;;;;7.55;6.40;;;17.70;99.90;;;;;;5031929;28;20509;-74
2023/09/07 04:58:32;;;;;;;6.28;5.65;;;17.70;99.90;;;;;;5046245;28;20518;-75
2023/09/07 05:01:09;;;;;;;7.85;5.75;;;17.60;99.90;;;;;;5053411;28;20037;-74
2023/09/07 05:03:35;;;;;;;8.05;6.05;;;17.50;99.90;;;;;;5062089;28;20037;-74
2023/09/07 05:06:03;;;;;;;7.07;6.38;;;17.50;99.90;;;;;;5069110;28;20072;-74
2023/09/07 05:08:29;;;;;;;7.10;5.90;;;17.50;99.90;;;;;;5066468;28;20168;-75
2023/09/07 05:10:59;;;;;;;7.40;6.20;;;17.50;99.90;;;;;;5043823;28;20541;-74
2023/09/07 05:13:26;;;;;;;6.65;5.85;;;17.50;99.90;;;;;;5059041;28;20040;-74
2023/09/07 05:15:53;;;;;;;6.97;5.82;;;17.40;99.90;;;;;;5045228;28;20051;-74
2023/09/07 05:18:20;;;;;;;6.47;5.88;;;17.50;99.90;;;;;;5058375;28;20642;-73
2023/09/07 05:20:46;;;;;;;7.25;6.05;;;17.50;99.90;;;;;;5060423;28;20380;-74
2023/09/07 05:23:15;;;;;;;9.40;6.38;;;17.50;99.90;;;;;;5063073;28;20458;-74
2023/09/07 05:25:45;;;;;;;8.48;6.57;;;17.40;99.90;;;;;;5065200;28;20463;-74
2023/09/07 05:28:15;;;;;;;9.73;7.05;;;17.50;99.90;;;;;;5062660;28;20045;-74
2023/09/07 05:30:44;;;;;;;7.85;6.78;;;17.40;99.90;;;;;;5065959;28;20044;-74
2023/09/07 05:33:11;;;;;;;8.02;6.05;;;17.50;99.90;;;;;;5045682;28;20054;-74
2023/09/07 05:35:37;;;;;;;9.30;6.43;;;17.50;99.90;;;;;;5058811;28;20144;-73
2023/09/07 05:38:06;;;;;;;7.30;6.30;;;17.60;99.90;;;;;;5054200;28;20072;-74
2023/09/07 05:40:36;;;;;;;8.60;6.13;;;17.60;99.90;;;;;;5049795;28;20048;-74
2023/09/07 05:43:03;;;;;;;7.35;6.15;;;17.70;99.90;;;;;;5078267;28;20479;-74
2023/09/07 05:45:31;;;;;;;7.50;6.53;;;17.70;99.90;;;;;;5044761;28;20049;-74
2023/09/07 05:47:57;;;;;;;6.53;5.82;;;17.80;99.90;;;;;;5062847;28;20557;-74
2023/09/07 05:50:23;;;;;;;8.10;6.63;;;17.80;99.90;;;;;;5059866;28;20576;-74
2023/09/07 05:52:49;;;;;;;7.03;6.18;;;17.90;99.90;;;;;;5046832;28;20051;-74
2023/09/07 05:55:15;;;;;;;10.02;5.95;;;18.00;99.90;;;;;;5045275;28;20395;-76
2023/09/07 05:57:43;;;;;;;6.80;5.43;;;18.10;99.90;;;;;;5058592;28;20138;-73
2023/09/07 06:00:13;;;;;;;7.22;6.53;;;18.20;99.90;;;;;;5059524;28;20174;-74
2023/09/07 06:02:39;;;;;;;7.03;5.75;;;18.20;99.90;;;;;;5096003;27;20037;-74
2023/09/07 06:05:05;;;;;;;7.88;6.85;;;18.30;99.90;;;;;;5064186;28;20047;-74
2023/09/07 06:07:34;;;;;;;9.10;5.97;;;18.40;99.90;;;;;;5044194;28;20168;-74
2023/09/07 06:10:00;;;;;;;7.43;6.10;;;18.50;99.90;;;;;;5057426;28;20043;-76
2023/09/07 06:12:26;;;;;;;9.05;6.82;;;18.50;99.90;;;;;;5057722;28;20378;-74
2023/09/07 06:14:51;;;;;;;7.03;6.30;;;18.60;99.90;;;;;;5057936;28;20479;-74
2023/09/07 06:17:17;;;;;;;8.57;6.38;;;18.70;99.90;;;;;;5044549;28;20051;-74
2023/09/07 06:19:43;;;;;;;8.27;5.88;;;18.80;99.90;;;;;;5044822;28;20036;-74
2023/09/07 06:22:08;;;;;;;6.72;6.00;;;18.80;99.90;;;;;;5059645;28;20052;-74
2023/09/07 06:24:34;;;;;;;7.70;6.45;;;18.90;99.90;;;;;;5068295;28;20064;-75
2023/09/07 06:27:00;;;;;;;8.15;6.38;;;18.90;99.90;;;;;;5058375;28;20179;-74
2023/09/07 06:29:26;;;;;;;10.70;6.35;;;19.00;99.90;;;;;;5058147;28;20391;-75
2023/09/07 06:31:52;;;;;;;7.75;5.70;;;19.00;99.90;;;;;;5041505;28;20390;-74
2023/09/07 06:34:18;;;;;;;7.57;6.72;;;19.10;99.90;;;;;;5061487;28;20040;-74
2023/09/07 06:36:43;;;;;;;8.43;5.78;;;19.20;99.90;;;;;;5064837;28;20724;-74
2023/09/07 06:39:09;;;;;;;6.97;6.00;;;19.20;99.90;;;;;;5066637;28;20040;-75
2023/09/07 06:41:35;;;;;;;8.95;6.22;;;19.20;99.90;;;;;;5061000;28;20093;-74
2023/09/07 06:44:01;;;;;;;6.90;6.20;;;19.30;99.90;;;;;;5055168;28;20135;-75
2023/09/07 06:46:26;;;;;;;7.80;6.15;;;19.40;99.90;;;;;;5066692;28;20526;-75
2023/09/07 06:48:52;;;;;;;7.60;6.20;;;19.40;99.90;;;;;;5046995;28;20177;-75
2023/09/07 06:51:18;;;;;;;7.25;5.95;;;19.40;99.90;;;;;;5060959;28;20060;-75
2023/09/07 06:53:44;;;;;;;7.75;5.75;;;19.40;99.90;;;;;;5060035;28;20044;-75
2023/09/07 06:56:10;;;;;;;6.85;6.03;;;19.50;99.90;;;;;;5045163;28;20407;-75
2023/09/07 06:58:38;;;;;;;7.07;5.75;;;19.50;99.90;;;;;;5043503;28;20044;-75
2023/09/07 07:01:04;;;;;;;6.30;5.70;;;19.60;99.90;;;;;;5059841;28;20097;-75
2023/09/07 07:03:30;;;;;;;6.78;6.07;;;19.70;99.90;;;;;;5041525;28;20084;-75
2023/09/07 07:05:56;;;;;;;8.38;5.75;;;19.70;99.90;;;;;;5061959;28;20056;-75
2023/09/07 07:08:23;;;;;;;7.53;5.55;;;19.80;99.90;;;;;;5065785;28;20131;-75
2023/09/07 07:10:49;;;;;;;7.13;5.78;;;19.90;99.90;;;;;;5044866;28;20094;-75
2023/09/07 07:13:15;;;;;;;7.30;6.50;;;19.90;99.90;;;;;;5057404;28;20083;-75
2023/09/07 07:15:44;;;;;;;10.98;5.93;;;20.10;99.90;;;;;;5061065;28;20390;-75
2023/09/07 07:18:10;;;;;;;6.78;5.70;;;20.20;99.90;;;;;;5076173;28;20056;-75
2023/09/07 07:20:41;;;;;;;6.93;5.57;;;20.30;99.90;;;;;;5063751;28;20086;-75
2023/09/07 07:23:08;;;;;;;6.68;5.70;;;20.40;99.90;;;;;;5045212;28;20137;-75
2023/09/07 07:25:34;;;;;;;6.80;5.00;;;20.60;99.90;;;;;;5061781;28;20039;-75
2023/09/07 07:28:06;;;;;;;7.22;5.07;;;20.70;99.90;;;;;;5047017;28;20109;-75
2023/09/07 07:30:33;;;;;;;6.65;5.18;;;20.80;99.90;;;;;;5058841;28;20072;-75
2023/09/07 07:32:59;;;;;;;7.18;5.85;;;21.00;99.90;;;;;;5058908;28;20111;-75
2023/09/07 07:35:25;;;;;;;6.90;5.07;;;21.10;99.90;;;;;;5061043;28;20095;-75
2023/09/07 07:37:51;;;;;;;7.45;5.38;;;21.30;99.90;;;;;;5054689;28;20136;-75
2023/09/07 07:40:17;;;;;;;6.18;5.07;;;21.40;99.90;;;;;;5060638;28;20036;-75
2023/09/07 07:42:46;;;;;;;5.85;4.85;;;21.50;99.90;;;;;;5048496;28;20033;-75
2023/09/07 07:45:12;;;;;;;6.78;5.00;;;21.70;99.90;;;;;;5060495;28;20121;-75
2023/09/07 07:47:39;;;;;;;5.43;4.93;;;21.80;99.90;;;;;;5061677;28;20044;-76
2023/09/07 07:50:05;;;;;;;8.35;4.70;;;22.00;99.90;;;;;;5045230;28;20067;-75
2023/09/07 07:52:31;;;;;;;7.03;4.43;;;22.10;99.90;;;;;;5044009;28;20323;-75
2023/09/07 07:54:57;;;;;;;8.55;4.80;;;22.30;99.90;;;;;;5057914;28;20090;-75
2023/09/07 07:57:23;;;;;;;5.60;4.85;;;22.50;99.90;;;;;;5062601;28;20131;-75
2023/09/07 07:59:48;;;;;;;9.10;5.50;;;22.70;99.90;;;;;;5059623;28;20123;-75
2023/09/07 08:02:14;;;;;;;6.40;4.82;;;22.80;99.90;;;;;;5057570;28;20051;-75
2023/09/07 08:04:40;;;;;;;6.32;4.68;;;23.00;99.90;;;;;;5046878;28;20127;-75
2023/09/07 08:07:08;;;;;;;6.00;4.35;;;23.20;99.90;;;;;;5061355;28;20047;-76
2023/09/07 08:09:35;;;;;;;5.50;4.78;;;23.30;99.90;;;;;;5059208;28;20419;-76
2023/09/07 08:12:04;;;;;;;5.47;4.53;;;23.50;99.90;;;;;;5066245;28;20044;-75
2023/09/07 08:14:30;;;;;;;6.00;4.65;;;23.60;99.90;;;;;;5069495;28;20372;-75
2023/09/07 08:16:57;;;;;;;7.22;4.70;;;23.70;99.90;;;;;;5058878;28;20040;-75
2023/09/07 08:19:22;;;;;;;5.95;4.80;;;23.90;99.90;;;;;;5047019;28;20044;-76
2023/09/07 08:21:48;;;;;;;8.13;4.80;;;24.00;99.90;;;;;;5062374;28;20049;-75
2023/09/07 08:24:14;;;;;;;6.32;4.90;;;24.10;99.90;;;;;;5068868;28;20479;-76
2023/09/07 08:26:43;;;;;;;6.35;4.05;;;24.20;99.90;;;;;;5050640;28;20036;-75
2023/09/07 08:29:10;;;;;;;5.72;3.97;;;24.30;99.90;;;;;;5048296;28;20040;-75
2023/09/07 08:31:40;;;;;;;5.03;4.30;;;24.40;99.90;;;;;;5062144;28;20040;-76
2023/09/07 08:34:14;;;;;;;6.43;4.30;;;24.50;99.90;;;;;;5049289;28;20083;-76
2023/09/07 08:36:43;;;;;;;5.13;4.63;;;24.60;99.90;;;;;;5061864;28;20422;-76
2023/09/07 08:39:12;;;;;;;8.10;4.45;;;24.70;99.90;;;;;;5059979;28;20453;-75
2023/09/07 08:41:43;;;;;;;7.32;4.65;;;24.80;99.90;;;;;;5066879;28;20072;-76
2023/09/07 08:44:15;;;;;;;6.38;4.53;;;24.90;99.90;;;;;;5040482;28;20056;-75
2023/09/07 08:46:42;;;;;;;7.88;4.30;;;25.00;99.90;;;;;;5063804;28;20071;-76
2023/09/07 08:49:08;;;;;;;5.90;4.10;;;25.20;99.90;;;;;;5044753;28;20048;-76
2023/09/07 08:51:38;;;;;;;6.05;4.35;;;25.30;99.90;;;;;;5062667;28;20047;-76
2023/09/07 08:54:06;;;;;;;5.68;4.07;;;25.40;99.90;;;;;;5063308;28;20051;-76
2023/09/07 08:56:33;;;;;;;9.20;4.38;;;25.60;99.90;;;;;;5062711;28;20576;-76
2023/09/07 08:58:59;;;;;;;5.72;4.43;;;25.70;99.90;;;;;;5058218;28;20041;-75
2023/09/07 09:01:25;;;;;;;6.32;4.13;;;25.80;99.90;;;;;;5063789;28;20037;-75
2023/09/07 09:03:51;;;;;;;8.65;4.32;;;25.90;99.90;;;;;;5053525;28;20044;-75
2023/09/07 09:06:19;;;;;;;8.15;4.35;;;26.00;99.40;;;;;;5058777;28;20065;-75
2023/09/07 09:08:56;;;;;;;8.25;4.20;;;26.10;99.30;;;;;;5063768;28;20462;-76
2023/09/07 09:11:24;;;;;;;6.30;4.55;;;26.10;98.80;;;;;;5057925;28;20199;-75
2023/09/07 09:13:52;;;;;;;5.97;4.13;;;26.20;98.60;;;;;;5066937;28;20036;-75
2023/09/07 09:16:18;;;;;;;7.38;4.25;;;26.30;98.30;;;;;;5043599;28;20506;-76
2023/09/07 09:18:52;;;;;;;5.95;4.45;;;26.40;98.40;;;;;;5063016;28;20078;-75
2023/09/07 09:21:26;;;;;;;7.00;4.47;;;26.40;97.70;;;;;;5062536;28;20057;-77
2023/09/07 09:23:54;;;;;;;6.13;4.20;;;26.50;97.60;;;;;;5056683;28;20116;-76
2023/09/07 09:26:20;;;;;;;5.55;3.97;;;26.50;96.60;;;;;;5059764;28;20055;-76
2023/09/07 09:28:46;;;;;;;5.82;3.75;;;26.60;96.70;;;;;;5061401;28;20040;-76
2023/09/07 09:31:14;;;;;;;5.13;4.30;;;26.60;96.40;;;;;;5061473;28;20498;-76
2023/09/07 09:33:47;;;;;;;4.80;4.00;;;26.70;96.70;;;;;;5047829;28;20037;-76
2023/09/07 09:36:14;;;;;;;5.53;4.20;;;26.80;96.20;;;;;;5058570;28;20045;-76
2023/09/07 09:38:40;;;;;;;6.85;3.72;;;26.80;96.00;;;;;;5044068;28;20049;-76
2023/09/07 09:41:07;;;;;;;4.53;3.90;;;26.90;96.00;;;;;;5061643;28;20514;-76
2023/09/07 09:43:33;;;;;;;5.50;4.32;;;27.00;95.30;;;;;;5063379;28;20557;-76
2023/09/07 09:46:00;;;;;;;4.65;3.85;;;27.10;95.20;;;;;;5047373;28;20128;-76
2023/09/07 09:48:28;;;;;;;5.70;4.28;;;27.10;95.40;;;;;;5060259;28;20232;-77
2023/09/07 09:50:53;;;;;;;7.35;4.75;;;27.30;95.10;;;;;;5078574;28;20486;-76
2023/09/07 09:53:20;;;;;;;7.40;3.97;;;27.40;95.00;;;;;;5048483;28;20079;-76
2023/09/07 09:55:52;;;;;;;6.18;4.32;;;27.50;95.20;;;;;;5043865;28;20040;-77
2023/09/07 09:58:18;;;;;;;5.72;3.97;;;27.60;95.30;;;;;;5051033;28;20051;-76
2023/09/07 10:00:50;;;;;;;7.78;4.28;;;27.70;95.20;;;;;;5061765;28;20036;-76
2023/09/07 10:03:30;;;;;;;5.82;4.50;;;27.80;93.90;;;;;;5069473;28;20049;-76
2023/09/07 10:05:55;;;;;;;7.60;3.97;;;27.80;93.40;;;;;;5076277;28;20433;-75
2023/09/07 10:08:24;;;;;;;6.15;4.53;;;27.80;93.20;;;;;;5068601;28;20041;-75
2023/09/07 10:10:54;;;;;;;6.88;3.90;;;27.90;93.20;;;;;;5065736;28;20043;-75
2023/09/07 10:13:30;;;;;;;;;;;28.00;93.00;;;;;;5059842;28;20050;-75
2023/09/07 10:16:09;;;;;;;6.10;4.05;;;28.10;93.60;;;;;;5075855;28;20351;-75
2023/09/07 10:18:38;;;;;;;5.85;4.38;;;28.20;92.70;;;;;;5046239;28;20173;-75
2023/09/07 10:21:05;;;;;;;6.57;4.20;;;28.20;91.10;;;;;;5078763;28;20307;-75
2023/09/07 10:23:45;;;;;;;7.25;4.15;;;28.20;89.50;;;;;;5064550;28;20131;-75
2023/09/07 10:26:16;;;;;;;6.97;3.80;;;28.20;90.30;;;;;;5043446;28;20107;-75
2023/09/07 10:28:43;;;;;;;6.45;3.83;;;28.30;91.50;;;;;;5067010;28;20048;-75
2023/09/07 10:31:15;;;;;;;6.90;4.18;;;28.40;92.40;;;;;;5061079;28;20159;-75
2023/09/07 10:33:41;;;;;;;6.35;3.78;;;28.50;90.20;;;;;;5060057;28;20063;-75
2023/09/07 10:36:08;;;;;;;6.00;3.85;;;28.50;86.50;;;;;;5043842;28;20087;-75
2023/09/07 10:38:35;;;;;;;8.30;4.50;;;28.40;88.90;;;;;;5061246;28;20048;-76
2023/09/07 10:41:04;;;;;;;5.82;4.00;;;28.50;85.10;;;;;;5082009;28;20527;-76
2023/09/07 10:43:31;;;;;;;6.88;4.15;;;28.50;85.30;;;;;;5071114;28;20040;-75
2023/09/07 10:45:59;;;;;;;4.90;4.10;;;28.50;84.40;;;;;;5057598;28;20548;-75
2023/09/07 10:48:25;;;;;;;5.30;4.00;;;28.60;84.90;;;;;;5063110;28;20037;-75
2023/09/07 10:50:52;;;;;;;6.70;4.30;;;28.70;83.30;;;;;;5067997;28;20051;-75
2023/09/07 10:53:32;;;;;;;7.28;4.85;;;28.80;83.00;;;;;;5049525;28;20063;-76
2023/09/07 10:56:02;;;;;;;7.18;4.00;;;28.90;84.30;;;;;;5039633;28;20116;-75
2023/09/07 10:58:32;;;;;;;5.97;3.83;;;29.10;82.50;;;;;;5058815;28;20048;-75
2023/09/07 11:00:59;;;;;;;6.25;3.50;;;29.10;81.90;;;;;;5053570;28;20431;-75
2023/09/07 11:03:26;;;;;;;7.15;4.25;;;29.20;82.80;;;;;;5050262;28;20102;-76
2023/09/07 11:05:56;;;;;;;6.75;4.18;;;29.40;84.30;;;;;;5058318;28;20048;-75
2023/09/07 11:08:23;;;;;;;6.35;4.03;;;29.50;84.50;;;;;;5055630;28;20542;-75
2023/09/07 11:10:51;;;;;;;6.38;3.92;;;29.60;84.30;;;;;;5054461;28;20390;-75
2023/09/07 11:13:17;;;;;;;5.25;3.95;;;29.60;82.20;;;;;;5035020;28;20106;-75
2023/09/07 11:15:43;;;;;;;7.13;4.25;;;29.70;81.50;;;;;;5039924;28;20430;-75
2023/09/07 11:18:09;;;;;;;6.72;4.57;;;29.60;80.60;;;;;;5047055;28;20462;-75
2023/09/07 11:20:36;;;;;;;5.57;4.07;;;29.60;79.10;;;;;;5052139;28;20040;-75
2023/09/07 11:23:03;;;;;;;7.03;4.20;;;29.60;79.70;;;;;;5061880;28;20041;-75
2023/09/07 11:25:38;;;;;;;5.03;4.22;;;29.60;79.70;;;;;;5039831;28;21284;-75
2023/09/07 11:28:06;;;;;;;7.05;4.90;;;29.70;81.40;;;;;;5058836;28;20048;-75
2023/09/07 11:30:33;;;;;;;5.88;4.32;;;29.80;80.80;;;;;;5060191;28;20372;-75
2023/09/07 11:33:07;;;;;;;6.15;4.30;;;30.00;81.50;;;;;;5045667;28;20766;-75
2023/09/07 11:35:36;;;;;;;5.45;3.97;;;30.10;80.10;;;;;;5054236;28;20392;-75
2023/09/07 11:38:06;;;;;;;6.85;4.10;;;30.20;77.60;;;;;;5039521;28;20052;-75
2023/09/07 11:40:32;;;;;;;6.30;3.90;;;30.20;78.30;;;;;;5059099;28;20051;-75
2023/09/07 11:42:58;;;;;;;4.80;3.95;;;30.30;78.70;;;;;;5051054;28;20499;-76
2023/09/07 11:45:24;;;;;;;5.93;4.13;;;30.30;74.10;;;;;;5044359;28;20050;-75
2023/09/07 11:47:50;;;;;;;6.85;4.28;;;30.30;74.30;;;;;;5050103;28;20406;-75
2023/09/07 11:50:20;;;;;;;5.00;4.10;;;30.20;73.50;;;;;;5068731;28;20048;-75
2023/09/07 11:52:46;;;;;;;6.00;4.22;;;30.20;73.50;;;;;;5052301;28;20049;-75
2023/09/07 11:55:14;;;;;;;6.82;4.20;;;30.30;73.50;;;;;;5045192;28;20083;-75
2023/09/07 11:57:42;;;;;;;7.20;4.25;;;30.30;72.90;;;;;;5046806;28;20122;-75
2023/09/07 12:00:11;;;;;;;4.68;3.58;;;30.40;73.60;;;;;;5044024;28;20032;-75
2023/09/07 12:02:38;;;;;;;5.78;3.92;;;30.50;72.70;;;;;;5045997;28;20039;-75
2023/09/07 12:05:09;;;;;;;7.03;4.10;;;30.50;71.10;;;;;;5069456;28;20056;-75
2023/09/07 12:07:36;;;;;;;7.35;4.45;;;30.50;70.50;;;;;;5052423;28;20072;-75
2023/09/07 12:10:02;;;;;;;6.10;4.10;;;30.50;71.10;;;;;;5054911;28;20787;-75
2023/09/07 12:12:28;;;;;;;4.93;3.65;;;30.50;70.20;;;;;;5063266;28;20032;-75
2023/09/07 12:14:56;;;;;;;7.35;3.88;;;30.50;70.00;;;;;;5060991;28;20537;-75
2023/09/07 12:17:22;;;;;;;6.20;4.32;;;30.50;68.50;;;;;;5056172;28;20052;-75
2023/09/07 12:19:49;;;;;;;5.53;3.75;;;30.30;66.60;;;;;;5059334;28;20123;-75
2023/09/07 12:22:15;;;;;;;4.97;3.80;;;30.20;66.90;;;;;;5040087;28;20107;-75
2023/09/07 12:24:41;;;;;;;7.30;3.92;;;30.20;67.00;;;;;;5057524;28;20526;-75
2023/09/07 12:27:07;;;;;;;5.47;3.80;;;30.10;65.80;;;;;;5057749;28;21079;-74
2023/09/07 12:29:32;;;;;;;5.47;3.83;;;30.10;67.30;;;;;;5066056;28;20179;-75
2023/09/07 12:31:58;;;;;;;7.65;3.97;;;30.10;67.10;;;;;;5062036;28;20499;-75
2023/09/07 12:34:25;;;;;;;6.95;4.03;;;30.20;67.20;;;;;;5043393;28;20048;-75
2023/09/07 12:36:50;;;;;;;6.13;3.80;;;30.30;66.50;;;;;;5066612;28;20854;-75
2023/09/07 12:39:17;;;;;;;5.32;3.67;;;30.30;64.20;;;;;;5063411;28;20056;-75
2023/09/07 12:41:43;;;;;;;6.95;4.07;;;30.30;62.50;;;;;;5076388;28;20131;-75
2023/09/07 12:44:08;;;;;;;7.43;3.92;;;30.20;62.60;;;;;;5063518;28;20645;-75
2023/09/07 12:46:35;;;;;;;6.60;4.10;;;30.20;62.70;;;;;;5066051;28;20037;-75